Time;durP1;ratioP1;P1;durP2;ratioP2;P2;SDS_P1;SDS_P2;PMS_P1;PMS_P2;Temp;Humidity;BMP_temperature;BMP_pressure;BME280_temperature;BME280_humidity;BME280_pressure;Samples;Min_cycle;Max_cycle;Signal;HPM_P1;HPM_P2
2022/01/13 00:01:28;;;;;;;2.27;0.50;;;;;;;;;;5009905;28;20440;-70
2022/01/13 00:03:54;;;;;;;0.73;0.43;;;;;;;;;;5027311;28;20471;-70
2022/01/13 00:06:21;;;;;;;3.10;0.50;;;;;;;;;;5032466;28;20259;-70
2022/01/13 00:08:48;;;;;;;2.47;0.40;;;;;;;;;;5032324;28;20028;-69
2022/01/13 00:11:14;;;;;;;1.10;0.50;;;;;;;;;;5033006;28;20085;-70
2022/01/13 00:13:49;;;;;;;0.60;0.30;;;;;;;;;;5032417;28;20040;-70
2022/01/13 00:18:51;;;;;;;2.33;0.50;;;;;;;;;;5026951;28;20108;-70
2022/01/13 00:23:51;;;;;;;1.83;0.70;;;;;;;;;;5027226;28;20040;-70
2022/01/13 00:26:21;;;;;;;0.47;0.47;;;;;;;;;;5026911;28;20167;-70
2022/01/13 00:28:50;;;;;;;0.87;0.43;;;;;;;;;;5032424;28;20120;-70
2022/01/13 00:31:22;;;;;;;0.67;0.40;;;;;;;;;;5032650;28;20019;-70
2022/01/13 00:33:51;;;;;;;1.50;0.50;;;;;;;;;;5031966;28;20168;-70
2022/01/13 00:36:18;;;;;;;1.93;0.67;;;;;;;;;;5032247;28;20017;-70
2022/01/13 00:38:44;;;;;;;2.57;1.07;;;;;;;;;;5031333;28;20045;-70
2022/01/13 00:41:11;;;;;;;2.27;1.13;;;;;;;;;;5027053;28;20484;-70
2022/01/13 00:43:40;;;;;;;3.20;1.40;;;;;;;;;;5026846;28;20033;-69
2022/01/13 00:46:08;;;;;;;1.47;0.60;;;;;;;;;;5026515;28;20025;-70
2022/01/13 00:48:35;;;;;;;6.43;1.23;;;;;;;;;;5026834;28;20499;-70
2022/01/13 00:51:02;;;;;;;10.40;0.80;;;;;;;;;;5031708;28;20033;-70
2022/01/13 00:53:28;;;;;;;7.67;1.00;;;;;;;;;;5032011;28;20033;-69
2022/01/13 00:55:58;;;;;;;7.20;1.07;;;;;;;;;;5031729;28;20033;-70
2022/01/13 00:58:26;;;;;;;5.20;0.90;;;;;;;;;;5032099;28;20096;-69
2022/01/13 01:00:54;;;;;;;4.13;0.87;;;;;;;;;;5031212;28;20056;-69
2022/01/13 01:03:21;;;;;;;5.57;2.00;;;;;;;;;;5026519;28;20033;-69
2022/01/13 01:05:47;;;;;;;2.33;0.80;;;;;;;;;;5026761;28;20026;-70
2022/01/13 01:08:14;;;;;;;0.80;0.40;;;;;;;;;;5011647;28;20033;-69
2022/01/13 01:10:41;;;;;;;6.97;0.60;;;;;;;;;;5026742;28;20025;-69
2022/01/13 01:13:14;;;;;;;1.47;0.60;;;;;;;;;;5031746;28;20476;-69
2022/01/13 01:15:44;;;;;;;2.73;0.70;;;;;;;;;;5031956;28;20476;-69
2022/01/13 01:21:46;;;;;;;7.43;1.10;;;;;;;;;;5031775;28;20079;-69
2022/01/13 01:23:39;;;;;;;4.47;0.77;;;;;;;;;;5003743;28;20041;-69
2022/01/13 01:26:25;;;;;;;7.37;1.00;;;;;;;;;;5025873;28;20126;-69
2022/01/13 01:29:00;;;;;;;6.77;1.10;;;;;;;;;;5026236;28;20086;-69
2022/01/13 01:31:29;;;;;;;;;;;;;;;;;;5027222;28;20021;-69
2022/01/13 01:34:21;;;;;;;7.50;1.03;;;;;;;;;;5028495;28;19909;-69
2022/01/13 01:36:48;;;;;;;2.27;0.90;;;;;;;;;;5031963;28;20021;-69
2022/01/13 01:39:15;;;;;;;5.80;1.03;;;;;;;;;;5031779;28;20026;-68
2022/01/13 01:41:43;;;;;;;5.10;1.00;;;;;;;;;;5031502;28;20036;-69
2022/01/13 01:44:11;;;;;;;5.87;1.30;;;;;;;;;;5031482;28;20472;-69
2022/01/13 01:46:39;;;;;;;4.73;1.00;;;;;;;;;;5027057;28;20036;-70
2022/01/13 01:49:27;;;;;;;2.97;0.90;;;;;;;;;;5027502;28;20025;-69
2022/01/13 01:51:59;;;;;;;4.57;1.50;;;;;;;;;;5029021;28;20076;-68
2022/01/13 01:54:27;;;;;;;5.67;1.30;;;;;;;;;;5029838;28;20115;-69
2022/01/13 01:56:53;;;;;;;5.00;1.10;;;;;;;;;;5033409;28;20476;-69
2022/01/13 01:59:24;;;;;;;4.93;1.10;;;;;;;;;;5035154;28;20041;-69
2022/01/13 02:01:51;;;;;;;5.37;1.70;;;;;;;;;;5035216;28;20067;-68
2022/01/13 02:04:18;;;;;;;7.60;2.73;;;;;;;;;;5035058;28;20029;-68
2022/01/13 02:06:45;;;;;;;7.07;2.10;;;;;;;;;;5034869;28;20083;-68
2022/01/13 02:09:12;;;;;;;6.10;1.17;;;;;;;;;;5030542;28;20108;-68
2022/01/13 02:11:48;;;;;;;3.93;1.30;;;;;;;;;;5029273;28;20061;-69
2022/01/13 02:17:09;;;;;;;6.37;2.07;;;;;;;;;;5028733;28;20028;-69
2022/01/13 02:19:46;;;;;;;9.77;2.70;;;;;;;;;;5034030;28;20539;-68
2022/01/13 02:22:13;;;;;;;6.47;1.40;;;;;;;;;;5034533;28;20103;-68
2022/01/13 02:24:40;;;;;;;3.40;1.30;;;;;;;;;;5034493;28;20021;-69
2022/01/13 02:27:07;;;;;;;3.07;1.00;;;;;;;;;;5034657;28;20029;-68
2022/01/13 02:29:34;;;;;;;5.77;1.10;;;;;;;;;;5034282;28;20025;-68
2022/01/13 02:32:01;;;;;;;2.27;1.03;;;;;;;;;;5029193;28;20033;-69
2022/01/13 02:34:28;;;;;;;4.70;0.83;;;;;;;;;;5029287;28;20029;-68
2022/01/13 02:36:57;;;;;;;9.20;1.27;;;;;;;;;;5029260;28;20878;-69
2022/01/13 02:39:24;;;;;;;4.97;1.00;;;;;;;;;;5029401;28;20033;-68
2022/01/13 02:41:51;;;;;;;2.17;0.87;;;;;;;;;;5019645;28;20072;-69
2022/01/13 02:44:22;;;;;;;3.00;0.90;;;;;;;;;;5014951;28;20072;-68
2022/01/13 02:49:17;;;;;;;2.93;1.03;;;;;;;;;;5014555;28;20089;-68
2022/01/13 02:51:45;;;;;;;8.03;1.30;;;;;;;;;;5027715;28;20026;-67
2022/01/13 02:54:12;;;;;;;6.67;1.43;;;;;;;;;;5028366;28;20017;-69
2022/01/13 02:56:39;;;;;;;5.07;1.40;;;;;;;;;;5027148;28;20530;-66
2022/01/13 02:59:07;;;;;;;7.43;1.03;;;;;;;;;;5025007;28;20030;-68
2022/01/13 03:01:38;;;;;;;2.43;0.97;;;;;;;;;;5043222;28;20029;-67
2022/01/13 03:04:08;;;;;;;5.57;1.33;;;;;;;;;;5052127;28;20025;-68
2022/01/13 03:06:36;;;;;;;2.33;0.70;;;;;;;;;;5017751;28;20036;-67
2022/01/13 03:09:04;;;;;;;3.30;0.80;;;;;;;;;;5033975;28;20104;-68
2022/01/13 03:11:37;;;;;;;1.60;0.67;;;;;;;;;;5033814;28;20368;-64
2022/01/13 03:14:11;;;;;;;6.33;1.07;;;;;;;;;;5033173;28;20025;-66
2022/01/13 03:16:39;;;;;;;3.42;1.00;;;;;;;;;;5040237;28;20376;-66
2022/01/13 03:19:06;;;;;;;3.30;0.87;;;;;;;;;;5028641;28;20032;-66
2022/01/13 03:21:32;;;;;;;10.13;2.07;;;;;;;;;;5028871;28;20038;-65
2022/01/13 03:24:00;;;;;;;2.77;1.10;;;;;;;;;;5028783;28;20107;-66
2022/01/13 03:26:26;;;;;;;2.33;0.87;;;;;;;;;;5033339;28;20036;-64
2022/01/13 03:29:05;;;;;;;2.00;0.87;;;;;;;;;;5033007;28;20049;-70
2022/01/13 03:31:32;;;;;;;1.67;0.77;;;;;;;;;;5033441;28;20025;-67
2022/01/13 03:33:58;;;;;;;2.20;1.20;;;;;;;;;;5035959;28;20033;-68
2022/01/13 03:36:25;;;;;;;6.00;1.13;;;;;;;;;;5032637;28;20029;-66
2022/01/13 03:38:53;;;;;;;3.60;1.33;;;;;;;;;;5028083;28;20069;-63
2022/01/13 03:41:20;;;;;;;1.77;0.90;;;;;;;;;;5028050;28;20057;-67
2022/01/13 03:43:50;;;;;;;3.00;1.10;;;;;;;;;;5028093;28;20033;-66
2022/01/13 03:46:16;;;;;;;8.20;3.00;;;;;;;;;;5028048;28;20025;-65
2022/01/13 03:48:44;;;;;;;3.47;1.67;;;;;;;;;;5033435;28;20021;-65
2022/01/13 03:51:11;;;;;;;1.13;0.70;;;;;;;;;;5033228;28;20076;-65
2022/01/13 03:53:56;;;;;;;3.30;1.10;;;;;;;;;;5033185;28;20112;-65
2022/01/13 03:56:26;;;;;;;1.67;0.88;;;;;;;;;;5032518;28;20040;-66
2022/01/13 03:59:05;;;;;;;4.47;0.80;;;;;;;;;;5031606;28;20427;-65
2022/01/13 04:01:50;;;;;;;9.80;1.70;;;;;;;;;;5012376;28;20083;-65
2022/01/13 04:04:17;;;;;;;1.92;0.80;;;;;;;;;;5027771;28;20044;-64
2022/01/13 04:06:46;;;;;;;4.83;1.10;;;;;;;;;;5029128;28;20036;-64
2022/01/13 04:09:31;;;;;;;3.47;1.00;;;;;;;;;;5029586;28;20034;-66
2022/01/13 04:12:00;;;;;;;5.93;2.35;;;;;;;;;;5032695;28;20443;-65
2022/01/13 04:14:31;;;;;;;8.77;1.60;;;;;;;;;;5032082;28;20052;-67
2022/01/13 04:16:57;;;;;;;2.33;0.90;;;;;;;;;;5032713;28;20025;-67
2022/01/13 04:19:24;;;;;;;2.53;0.90;;;;;;;;;;5032599;28;20053;-64
2022/01/13 04:21:51;;;;;;;2.03;0.93;;;;;;;;;;5029498;28;20030;-64
2022/01/13 04:24:17;;;;;;;2.17;0.90;;;;;;;;;;5027298;28;20031;-64
2022/01/13 04:26:44;;;;;;;4.60;1.23;;;;;;;;;;5027552;28;20029;-64
2022/01/13 04:31:38;;;;;;;1.77;0.97;;;;;;;;;;5029821;28;20112;-66
2022/01/13 04:34:05;;;;;;;2.27;0.93;;;;;;;;;;5031909;28;20033;-66
2022/01/13 04:36:32;;;;;;;5.53;1.10;;;;;;;;;;5031890;28;20033;-66
2022/01/13 04:38:59;;;;;;;2.40;1.03;;;;;;;;;;5032234;28;20124;-65
2022/01/13 04:41:34;;;;;;;6.10;0.80;;;;;;;;;;5032328;28;20059;-66
2022/01/13 04:44:00;;;;;;;;;;;;;;;;;;5029427;28;20648;-65
2022/01/13 04:46:27;;;;;;;1.83;0.70;;;;;;;;;;5027134;28;19920;-65
2022/01/13 04:48:54;;;;;;;1.37;0.70;;;;;;;;;;5017525;28;20018;-68
2022/01/13 04:51:21;;;;;;;2.10;0.60;;;;;;;;;;5026791;28;20075;-66
2022/01/13 04:53:47;;;;;;;2.10;1.17;;;;;;;;;;5029339;28;20022;-66
2022/01/13 04:56:27;;;;;;;3.80;0.80;;;;;;;;;;5032033;28;20053;-68
2022/01/13 04:58:53;;;;;;;3.37;0.70;;;;;;;;;;5030021;28;20021;-68
2022/01/13 05:01:20;;;;;;;2.53;0.80;;;;;;;;;;5031922;28;20030;-66
2022/01/13 05:03:47;;;;;;;3.53;0.80;;;;;;;;;;5032064;28;20021;-66
2022/01/13 05:06:17;;;;;;;1.93;0.70;;;;;;;;;;5028956;28;20037;-68
2022/01/13 05:08:44;;;;;;;4.27;1.03;;;;;;;;;;5027190;28;20105;-66
2022/01/13 05:11:11;;;;;;;2.17;0.80;;;;;;;;;;5026378;28;20026;-65
2022/01/13 05:13:38;;;;;;;1.97;0.70;;;;;;;;;;5026913;28;20117;-67
2022/01/13 05:16:06;;;;;;;1.27;0.67;;;;;;;;;;5029546;28;20060;-67
2022/01/13 05:21:06;;;;;;;7.27;1.20;;;;;;;;;;5031388;28;20087;-68
2022/01/13 05:23:33;;;;;;;1.30;0.70;;;;;;;;;;5032249;28;20468;-69
2022/01/13 05:26:00;;;;;;;1.23;0.63;;;;;;;;;;5035243;28;20026;-66
2022/01/13 05:28:26;;;;;;;3.20;1.00;;;;;;;;;;5032504;28;20380;-67
2022/01/13 05:30:53;;;;;;;2.60;0.87;;;;;;;;;;5030517;28;20026;-67
2022/01/13 05:33:20;;;;;;;1.43;0.60;;;;;;;;;;5030376;28;20022;-67
2022/01/13 05:35:46;;;;;;;0.87;0.40;;;;;;;;;;5030682;28;20083;-68
2022/01/13 05:38:13;;;;;;;6.03;0.90;;;;;;;;;;5033075;28;20484;-67
2022/01/13 05:40:40;;;;;;;2.03;0.83;;;;;;;;;;5033521;28;20120;-66
2022/01/13 05:43:08;;;;;;;3.00;0.80;;;;;;;;;;5034854;28;20554;-67
2022/01/13 05:45:35;;;;;;;4.50;0.77;;;;;;;;;;5035646;28;20021;-65
2022/01/13 05:48:03;;;;;;;0.87;0.57;;;;;;;;;;5035718;28;20427;-65
2022/01/13 05:50:31;;;;;;;1.47;0.80;;;;;;;;;;5032161;28;20100;-67
2022/01/13 05:52:58;;;;;;;4.57;0.77;;;;;;;;;;5030567;28;20179;-67
2022/01/13 05:55:25;;;;;;;2.77;0.60;;;;;;;;;;5029897;28;20105;-67
2022/01/13 05:57:51;;;;;;;1.97;0.97;;;;;;;;;;5029927;28;20053;-67
2022/01/13 06:00:20;;;;;;;5.20;0.70;;;;;;;;;;5032031;28;20419;-66
2022/01/13 06:02:46;;;;;;;4.07;0.93;;;;;;;;;;5035400;28;20041;-66
2022/01/13 06:05:14;;;;;;;2.83;1.00;;;;;;;;;;5034766;28;20104;-67
2022/01/13 06:07:40;;;;;;;2.10;0.90;;;;;;;;;;5034948;28;20018;-67
2022/01/13 06:10:09;;;;;;;4.20;0.90;;;;;;;;;;5034736;28;20025;-69
2022/01/13 06:12:39;;;;;;;3.87;0.63;;;;;;;;;;5031612;28;20025;-66
2022/01/13 06:15:08;;;;;;;7.70;3.03;;;;;;;;;;5030019;28;20034;-66
2022/01/13 06:17:35;;;;;;;1.40;0.67;;;;;;;;;;5029596;28;20635;-66
2022/01/13 06:20:02;;;;;;;3.47;1.03;;;;;;;;;;5029761;28;20270;-68
2022/01/13 06:22:29;;;;;;;1.97;0.90;;;;;;;;;;5029836;28;20316;-65
2022/01/13 06:24:55;;;;;;;7.23;2.10;;;;;;;;;;5034579;28;20303;-66
2022/01/13 06:27:23;;;;;;;3.53;1.03;;;;;;;;;;5034246;28;20613;-66
2022/01/13 06:29:52;;;;;;;4.40;2.20;;;;;;;;;;5034518;28;20802;-67
2022/01/13 06:32:22;;;;;;;2.73;0.63;;;;;;;;;;5034080;28;20263;-67
2022/01/13 06:34:55;;;;;;;2.57;1.10;;;;;;;;;;5031282;28;20088;-67
2022/01/13 06:37:32;;;;;;;4.50;0.80;;;;;;;;;;5029455;28;21016;-67
2022/01/13 06:40:04;;;;;;;3.17;0.90;;;;;;;;;;5029235;28;20402;-67
2022/01/13 06:42:37;;;;;;;1.77;0.80;;;;;;;;;;5028392;28;20389;-68
2022/01/13 06:45:13;;;;;;;1.60;0.50;;;;;;;;;;5032590;28;20358;-67
2022/01/13 06:47:40;;;;;;;5.07;0.97;;;;;;;;;;5034388;28;20316;-68
2022/01/13 06:50:08;;;;;;;2.07;0.70;;;;;;;;;;5033887;28;20278;-67
2022/01/13 06:52:35;;;;;;;1.00;0.73;;;;;;;;;;5034370;28;20354;-67
2022/01/13 06:55:02;;;;;;;1.40;0.73;;;;;;;;;;5034073;28;20321;-67
2022/01/13 06:57:30;;;;;;;1.00;0.80;;;;;;;;;;5030157;28;20270;-67
2022/01/13 06:59:57;;;;;;;3.27;0.70;;;;;;;;;;5029377;28;21132;-68
2022/01/13 07:02:25;;;;;;;2.33;0.50;;;;;;;;;;5028981;28;20704;-67
2022/01/13 07:04:52;;;;;;;1.63;0.60;;;;;;;;;;5028557;28;20274;-67
2022/01/13 07:07:18;;;;;;;1.17;0.50;;;;;;;;;;5032443;28;20807;-67
2022/01/13 07:09:45;;;;;;;4.03;1.00;;;;;;;;;;5033804;28;20263;-67
2022/01/13 07:12:12;;;;;;;1.93;0.80;;;;;;;;;;5033817;28;20594;-67
2022/01/13 07:14:39;;;;;;;2.20;0.70;;;;;;;;;;5033880;28;20278;-67
2022/01/13 07:17:05;;;;;;;1.17;0.43;;;;;;;;;;5033691;28;20725;-67
2022/01/13 07:19:32;;;;;;;1.87;0.77;;;;;;;;;;5029221;28;20761;-69
2022/01/13 07:21:59;;;;;;;2.47;0.70;;;;;;;;;;5033996;28;20286;-68
2022/01/13 07:24:26;;;;;;;1.23;0.63;;;;;;;;;;5047406;28;20345;-69
2022/01/13 07:26:53;;;;;;;0.73;0.60;;;;;;;;;;5027940;28;20602;-69
2022/01/13 07:29:19;;;;;;;4.57;0.50;;;;;;;;;;5047558;28;20389;-68
2022/01/13 07:31:47;;;;;;;1.67;0.60;;;;;;;;;;5053507;28;20250;-69
2022/01/13 07:34:14;;;;;;;2.13;0.50;;;;;;;;;;5053147;28;20282;-68
2022/01/13 07:36:41;;;;;;;1.80;0.70;;;;;;;;;;5042171;28;20271;-69
2022/01/13 07:39:08;;;;;;;1.83;0.60;;;;;;;;;;5033239;28;20282;-69
2022/01/13 07:41:36;;;;;;;1.33;0.63;;;;;;;;;;5029920;28;20287;-70
2022/01/13 07:44:04;;;;;;;0.97;0.50;;;;;;;;;;5027850;28;20271;-69
2022/01/13 07:46:31;;;;;;;1.53;0.60;;;;;;;;;;5027507;28;20341;-69
2022/01/13 07:48:57;;;;;;;0.83;0.60;;;;;;;;;;5027707;28;20278;-71
2022/01/13 07:51:24;;;;;;;1.30;0.63;;;;;;;;;;5031111;28;20258;-70
2022/01/13 07:53:51;;;;;;;4.33;0.50;;;;;;;;;;5033403;28;20262;-69
2022/01/13 07:56:18;;;;;;;1.03;0.60;;;;;;;;;;5032754;28;20263;-70
2022/01/13 07:58:46;;;;;;;2.07;0.70;;;;;;;;;;5032998;28;20325;-70
2022/01/13 08:01:13;;;;;;;3.20;1.00;;;;;;;;;;5032655;28;20345;-69
2022/01/13 08:03:40;;;;;;;0.83;0.53;;;;;;;;;;5029796;28;20804;-71
2022/01/13 08:06:07;;;;;;;1.00;0.57;;;;;;;;;;5027630;28;20258;-70
2022/01/13 08:08:35;;;;;;;0.90;0.57;;;;;;;;;;5027758;28;20354;-70
2022/01/13 08:11:03;;;;;;;1.43;0.60;;;;;;;;;;5027997;28;20261;-70
2022/01/13 08:13:30;;;;;;;2.20;0.40;;;;;;;;;;5030704;28;20597;-69
2022/01/13 08:15:58;;;;;;;1.27;0.50;;;;;;;;;;5032768;28;20645;-69
2022/01/13 08:21:10;;;;;;;1.17;0.50;;;;;;;;;;5032785;28;20265;-69
2022/01/13 08:23:36;;;;;;;0.60;0.50;;;;;;;;;;5032759;28;20030;-69
2022/01/13 08:26:03;;;;;;;1.13;0.50;;;;;;;;;;5028754;28;20644;-69
2022/01/13 08:28:30;;;;;;;1.40;0.60;;;;;;;;;;5027593;28;20598;-70
2022/01/13 08:30:58;;;;;;;3.37;0.60;;;;;;;;;;5027353;28;20316;-70
2022/01/13 08:33:25;;;;;;;3.30;0.53;;;;;;;;;;5027107;28;20274;-70
2022/01/13 08:35:52;;;;;;;1.37;0.60;;;;;;;;;;5030922;28;20251;-69
2022/01/13 08:38:19;;;;;;;3.10;0.50;;;;;;;;;;5032285;28;20377;-69
2022/01/13 08:40:47;;;;;;;0.30;0.30;;;;;;;;;;5032370;28;20258;-69
2022/01/13 08:43:15;;;;;;;0.33;0.30;;;;;;;;;;5032154;28;20768;-69
2022/01/13 08:45:42;;;;;;;0.77;0.40;;;;;;;;;;5031956;28;20266;-70
2022/01/13 08:48:09;;;;;;;0.73;0.40;;;;;;;;;;5028431;28;20731;-69
2022/01/13 08:50:36;;;;;;;2.30;0.50;;;;;;;;;;5027343;28;20337;-69
2022/01/13 08:53:03;;;;;;;0.67;0.37;;;;;;;;;;5027122;28;20322;-70
2022/01/13 08:55:30;;;;;;;0.87;0.43;;;;;;;;;;5027443;28;20259;-70
2022/01/13 08:57:57;;;;;;;0.50;0.40;;;;;;;;;;5029717;28;20265;-69
2022/01/13 09:00:24;;;;;;;1.00;0.50;;;;;;;;;;5031731;28;20345;-70
2022/01/13 09:02:50;;;;;;;1.27;0.40;;;;;;;;;;5032025;28;20290;-69
2022/01/13 09:05:18;;;;;;;0.90;0.47;;;;;;;;;;5032195;28;20266;-69
2022/01/13 09:07:45;;;;;;;0.73;0.33;;;;;;;;;;5031825;28;20316;-69
2022/01/13 09:10:12;;;;;;;0.50;0.30;;;;;;;;;;5028544;28;20265;-69
2022/01/13 09:12:39;;;;;;;0.50;0.30;;;;;;;;;;5026915;28;20267;-69
2022/01/13 09:15:18;;;;;;;0.10;0.10;;;;;;;;;;5027090;28;20289;-70
2022/01/13 09:17:45;;;;;;;1.60;0.50;;;;;;;;;;5026530;28;20306;-69
2022/01/13 09:20:13;;;;;;;1.13;0.50;;;;;;;;;;5030437;28;20271;-69
2022/01/13 09:22:39;;;;;;;0.97;0.43;;;;;;;;;;5031630;28;20641;-69
2022/01/13 09:25:07;;;;;;;1.00;0.33;;;;;;;;;;5031915;28;20661;-69
2022/01/13 09:27:35;;;;;;;0.83;0.60;;;;;;;;;;5031453;28;20324;-71
2022/01/13 09:30:02;;;;;;;1.23;0.53;;;;;;;;;;5032232;28;20263;-69
2022/01/13 09:32:28;;;;;;;1.33;0.50;;;;;;;;;;5027552;28;20247;-69
2022/01/13 09:34:55;;;;;;;0.67;0.37;;;;;;;;;;5026817;28;20673;-69
2022/01/13 09:37:24;;;;;;;1.03;0.50;;;;;;;;;;5026958;28;20270;-69
2022/01/13 09:39:51;;;;;;;1.13;0.57;;;;;;;;;;5026529;28;20365;-69
2022/01/13 09:42:18;;;;;;;0.63;0.40;;;;;;;;;;5029930;28;20344;-70
2022/01/13 09:44:48;;;;;;;1.50;0.70;;;;;;;;;;5031469;28;20267;-69
2022/01/13 09:47:14;;;;;;;0.50;0.20;;;;;;;;;;5031603;28;20269;-69
2022/01/13 09:49:44;;;;;;;2.60;0.40;;;;;;;;;;5030484;28;20287;-69
2022/01/13 09:52:10;;;;;;;0.40;0.37;;;;;;;;;;5031539;28;20945;-69
2022/01/13 09:54:37;;;;;;;1.17;0.67;;;;;;;;;;5027145;28;20275;-69
2022/01/13 09:57:04;;;;;;;2.83;0.33;;;;;;;;;;5026325;28;20263;-69
2022/01/13 09:59:31;;;;;;;1.83;0.50;;;;;;;;;;5026357;28;20261;-69
2022/01/13 10:01:57;;;;;;;1.17;0.40;;;;;;;;;;5026491;28;20340;-69
2022/01/13 10:04:24;;;;;;;1.23;0.33;;;;;;;;;;5029750;28;20271;-69
2022/01/13 10:06:51;;;;;;;0.43;0.23;;;;;;;;;;5031119;28;20323;-69
2022/01/13 10:09:17;;;;;;;1.53;0.43;;;;;;;;;;5031748;28;20292;-69
2022/01/13 10:11:56;;;;;;;0.80;0.40;;;;;;;;;;5034764;28;20313;-70
2022/01/13 10:16:59;;;;;;;4.17;0.63;;;;;;;;;;5030079;28;20914;-69
2022/01/13 10:19:32;;;;;;;0.47;0.20;;;;;;;;;;5029952;28;20598;-69
2022/01/13 10:22:01;;;;;;;1.67;0.40;;;;;;;;;;5029496;28;20287;-69
2022/01/13 10:24:29;;;;;;;0.30;0.20;;;;;;;;;;5029864;28;20325;-69
2022/01/13 10:27:01;;;;;;;0.23;0.20;;;;;;;;;;5033804;28;20274;-69
2022/01/13 10:29:37;;;;;;;2.67;0.57;;;;;;;;;;5035086;28;20777;-68
2022/01/13 10:32:03;;;;;;;0.53;0.23;;;;;;;;;;5034852;28;20733;-69
2022/01/13 10:34:32;;;;;;;0.50;0.30;;;;;;;;;;5034597;28;20250;-69
2022/01/13 10:37:00;;;;;;;2.87;0.37;;;;;;;;;;5034351;28;20271;-69
2022/01/13 10:39:45;;;;;;;0.93;0.30;;;;;;;;;;5029172;28;20761;-68
2022/01/13 10:42:21;;;;;;;0.52;0.40;;;;;;;;;;5029489;28;20772;-69
2022/01/13 10:44:54;;;;;;;0.40;0.30;;;;;;;;;;5029651;28;20029;-68
2022/01/13 10:47:20;;;;;;;0.73;0.27;;;;;;;;;;5029853;28;20741;-68
2022/01/13 10:49:50;;;;;;;0.17;0.13;;;;;;;;;;5034442;28;20265;-68
2022/01/13 10:52:27;;;;;;;0.80;0.40;;;;;;;;;;5034539;28;20259;-68
2022/01/13 10:55:03;;;;;;;0.70;0.30;;;;;;;;;;5034051;28;20262;-69
2022/01/13 10:57:30;;;;;;;0.20;0.20;;;;;;;;;;5034175;28;20741;-68
2022/01/13 10:59:57;;;;;;;0.40;0.20;;;;;;;;;;5032320;28;20301;-68
2022/01/13 11:02:24;;;;;;;0.53;0.40;;;;;;;;;;5029173;28;20287;-69
2022/01/13 11:04:51;;;;;;;0.73;0.33;;;;;;;;;;5029085;28;20341;-68
2022/01/13 11:07:27;;;;;;;2.20;0.40;;;;;;;;;;5028224;28;20621;-68
2022/01/13 11:09:54;;;;;;;0.17;0.13;;;;;;;;;;5030766;28;20270;-68
2022/01/13 11:12:29;;;;;;;0.53;0.37;;;;;;;;;;5034202;28;20775;-68
2022/01/13 11:15:01;;;;;;;0.60;0.35;;;;;;;;;;5034336;28;20788;-68
2022/01/13 11:17:29;;;;;;;0.60;0.30;;;;;;;;;;5033411;28;20511;-68
2022/01/13 11:19:58;;;;;;;0.60;0.30;;;;;;;;;;5034053;28;20342;-69
2022/01/13 11:22:25;;;;;;;0.53;0.30;;;;;;;;;;5030108;28;20282;-69
2022/01/13 11:24:52;;;;;;;1.90;0.30;;;;;;;;;;5028403;28;20298;-68
2022/01/13 11:27:20;;;;;;;1.70;0.53;;;;;;;;;;5028294;28;20267;-68
2022/01/13 11:29:47;;;;;;;1.17;0.30;;;;;;;;;;5028711;28;20298;-68
2022/01/13 11:32:17;;;;;;;0.87;0.47;;;;;;;;;;5030603;28;20719;-68
2022/01/13 11:34:44;;;;;;;1.00;0.47;;;;;;;;;;5033739;28;20266;-68
2022/01/13 11:37:12;;;;;;;0.83;0.20;;;;;;;;;;5033377;28;20275;-68
2022/01/13 11:39:40;;;;;;;1.10;0.40;;;;;;;;;;5033436;28;21121;-68
2022/01/13 11:42:08;;;;;;;0.40;0.30;;;;;;;;;;5033125;28;20393;-68
2022/01/13 11:44:35;;;;;;;0.50;0.20;;;;;;;;;;5030377;28;20349;-68
2022/01/13 11:47:07;;;;;;;0.67;0.20;;;;;;;;;;5027858;28;20346;-68
2022/01/13 11:50:18;;;;;;;1.00;0.33;;;;;;;;;;5028179;28;20258;-68
2022/01/13 11:52:47;;;;;;;0.10;0.10;;;;;;;;;;5017194;28;20742;-68
2022/01/13 11:55:20;;;;;;;0.33;0.20;;;;;;;;;;5032096;28;20273;-68
2022/01/13 11:57:46;;;;;;;0.20;0.20;;;;;;;;;;5032750;28;20274;-68
2022/01/13 12:00:22;;;;;;;2.37;0.20;;;;;;;;;;5032806;28;20749;-68
2022/01/13 12:02:49;;;;;;;0.40;0.30;;;;;;;;;;5033240;28;20286;-68
2022/01/13 12:05:23;;;;;;;0.30;0.30;;;;;;;;;;5033100;28;20036;-68
2022/01/13 12:07:53;;;;;;;1.50;0.30;;;;;;;;;;5027763;28;20269;-68
2022/01/13 12:10:25;;;;;;;2.97;0.20;;;;;;;;;;5027431;28;20273;-68
2022/01/13 12:12:53;;;;;;;1.43;0.30;;;;;;;;;;5027461;28;20265;-68
2022/01/13 12:15:24;;;;;;;2.47;0.30;;;;;;;;;;5027535;28;20780;-68
2022/01/13 12:17:57;;;;;;;0.67;0.10;;;;;;;;;;5032666;28;20254;-68
2022/01/13 12:20:27;;;;;;;3.57;0.80;;;;;;;;;;5032349;28;20656;-68
2022/01/13 12:23:16;;;;;;;0.37;0.20;;;;;;;;;;5032700;28;20434;-68
2022/01/13 12:25:44;;;;;;;0.57;0.40;;;;;;;;;;5032822;28;20650;-68
2022/01/13 12:28:15;;;;;;;3.70;1.10;;;;;;;;;;5031307;28;20760;-68
2022/01/13 12:30:41;;;;;;;0.93;0.80;;;;;;;;;;5027168;28;20271;-69
2022/01/13 12:33:09;;;;;;;1.47;0.50;;;;;;;;;;5027041;28;20251;-69
2022/01/13 12:35:38;;;;;;;0.27;0.27;;;;;;;;;;5027526;28;20267;-68
2022/01/13 12:38:07;;;;;;;1.90;0.20;;;;;;;;;;5028371;28;20255;-68
2022/01/13 12:40:40;;;;;;;1.40;0.50;;;;;;;;;;5032286;28;20271;-68
2022/01/13 12:43:21;;;;;;;0.73;0.40;;;;;;;;;;5032586;28;20294;-68
2022/01/13 12:45:48;;;;;;;1.43;0.50;;;;;;;;;;5032071;28;20337;-68
2022/01/13 12:48:15;;;;;;;0.57;0.23;;;;;;;;;;5032445;28;20247;-68
2022/01/13 12:50:44;;;;;;;1.47;0.33;;;;;;;;;;5027979;28;20634;-68
2022/01/13 12:53:10;;;;;;;0.60;0.20;;;;;;;;;;5027277;28;20261;-68
2022/01/13 12:55:38;;;;;;;2.17;0.30;;;;;;;;;;5027014;28;20258;-68
2022/01/13 12:58:05;;;;;;;1.03;0.40;;;;;;;;;;5026886;28;20317;-68
2022/01/13 13:00:32;;;;;;;2.93;0.73;;;;;;;;;;5028608;28;20259;-68
2022/01/13 13:03:05;;;;;;;1.00;0.30;;;;;;;;;;5031941;28;20282;-68
2022/01/13 13:05:36;;;;;;;1.40;0.53;;;;;;;;;;5032197;28;20811;-68
2022/01/13 13:08:03;;;;;;;2.73;1.00;;;;;;;;;;5032306;28;20255;-68
2022/01/13 13:10:30;;;;;;;0.70;0.47;;;;;;;;;;5031683;28;20410;-69
2022/01/13 13:12:58;;;;;;;1.70;0.40;;;;;;;;;;5029556;28;20262;-68
2022/01/13 13:17:52;;;;;;;1.10;0.70;;;;;;;;;;5027012;28;20266;-68
2022/01/13 13:20:27;;;;;;;3.80;1.40;;;;;;;;;;5026514;28;20270;-68
2022/01/13 13:22:56;;;;;;;2.97;1.00;;;;;;;;;;5028298;28;20286;-68
2022/01/13 13:25:27;;;;;;;1.40;0.97;;;;;;;;;;5032001;28;20708;-68
2022/01/13 13:27:53;;;;;;;3.33;0.70;;;;;;;;;;5031997;28;20733;-68
2022/01/13 13:30:20;;;;;;;1.47;0.73;;;;;;;;;;5031906;28;20316;-68
2022/01/13 13:32:50;;;;;;;4.40;1.23;;;;;;;;;;5031758;28;20341;-68
2022/01/13 13:35:18;;;;;;;4.80;1.00;;;;;;;;;;5028979;28;20269;-68
2022/01/13 13:37:48;;;;;;;1.17;0.70;;;;;;;;;;5026592;28;20255;-68
2022/01/13 13:40:25;;;;;;;1.20;0.60;;;;;;;;;;5026748;28;20270;-68
2022/01/13 13:43:02;;;;;;;3.17;0.70;;;;;;;;;;5026221;28;20757;-68
2022/01/13 13:45:29;;;;;;;3.03;0.90;;;;;;;;;;5031711;28;20263;-68
2022/01/13 13:47:59;;;;;;;3.63;0.80;;;;;;;;;;5035638;28;20582;-67
2022/01/13 13:50:26;;;;;;;9.77;1.13;;;;;;;;;;5035757;28;20263;-68
2022/01/13 13:53:05;;;;;;;2.77;1.20;;;;;;;;;;5035398;28;20250;-68
2022/01/13 13:55:32;;;;;;;6.23;1.63;;;;;;;;;;5035672;28;20254;-68
2022/01/13 13:57:59;;;;;;;8.97;1.03;;;;;;;;;;5030439;28;20263;-69
2022/01/13 14:00:27;;;;;;;4.47;0.80;;;;;;;;;;5033156;28;20263;-67
2022/01/13 14:02:55;;;;;;;10.13;1.07;;;;;;;;;;5032138;28;20380;-67
2022/01/13 14:05:26;;;;;;;0.83;0.60;;;;;;;;;;5043863;28;20294;-66
2022/01/13 14:07:54;;;;;;;8.10;2.50;;;;;;;;;;5036553;28;20266;-67
2022/01/13 14:10:27;;;;;;;3.63;0.80;;;;;;;;;;5045916;28;20345;-69
2022/01/13 14:13:02;;;;;;;1.60;0.60;;;;;;;;;;5035118;28;20263;-67
2022/01/13 14:15:32;;;;;;;1.02;0.60;;;;;;;;;;5035403;28;20346;-66
2022/01/13 14:18:25;;;;;;;6.70;0.80;;;;;;;;;;5048320;28;20104;-67
2022/01/13 14:20:57;;;;;;;2.23;0.57;;;;;;;;;;5026793;28;20373;-67
2022/01/13 14:23:28;;;;;;;2.93;0.40;;;;;;;;;;5030072;28;20290;-67
2022/01/13 14:26:05;;;;;;;1.40;0.60;;;;;;;;;;5030124;28;20753;-67
2022/01/13 14:28:32;;;;;;;3.43;1.87;;;;;;;;;;5010820;28;20270;-67
2022/01/13 14:31:01;;;;;;;4.30;0.93;;;;;;;;;;5013780;28;20267;-67
2022/01/13 14:33:30;;;;;;;1.27;0.80;;;;;;;;;;5018419;28;20268;-67
2022/01/13 14:36:17;;;;;;;2.90;0.70;;;;;;;;;;5045520;28;20423;-67
2022/01/13 14:38:43;;;;;;;5.13;0.70;;;;;;;;;;5014471;28;20377;-67
2022/01/13 14:41:12;;;;;;;1.77;0.70;;;;;;;;;;5012488;28;20096;-68
2022/01/13 14:43:39;;;;;;;2.97;1.40;;;;;;;;;;5009586;28;20101;-68
2022/01/13 14:46:11;;;;;;;3.47;1.53;;;;;;;;;;5009566;28;20075;-68
2022/01/13 14:48:40;;;;;;;3.07;1.50;;;;;;;;;;5009694;28;20014;-68
2022/01/13 14:51:15;;;;;;;6.50;1.00;;;;;;;;;;5011267;28;20025;-68
2022/01/13 14:53:41;;;;;;;2.33;1.60;;;;;;;;;;5014752;28;20488;-67
2022/01/13 14:56:09;;;;;;;5.20;1.30;;;;;;;;;;5014561;28;20258;-68
2022/01/13 14:58:36;;;;;;;5.43;1.37;;;;;;;;;;5033052;28;20037;-67
2022/01/13 15:01:04;;;;;;;2.80;1.40;;;;;;;;;;5034367;28;20017;-67
2022/01/13 15:03:30;;;;;;;9.07;1.40;;;;;;;;;;5030981;28;20068;-68
2022/01/13 15:05:57;;;;;;;2.87;1.53;;;;;;;;;;5029130;28;20424;-68
2022/01/13 15:08:25;;;;;;;1.80;1.00;;;;;;;;;;5030764;28;20668;-68
2022/01/13 15:10:52;;;;;;;3.67;1.60;;;;;;;;;;5028858;28;20026;-68
2022/01/13 15:13:19;;;;;;;4.50;1.27;;;;;;;;;;5031251;28;20021;-68
2022/01/13 15:15:45;;;;;;;3.50;1.53;;;;;;;;;;5034105;28;20357;-67
2022/01/13 15:18:17;;;;;;;2.17;1.00;;;;;;;;;;5033489;28;20026;-68
2022/01/13 15:20:44;;;;;;;4.13;1.60;;;;;;;;;;5033933;28;20055;-68